TimeCET,TemperatureF,Dew PointF,Humidity,Sea Level PressureIn,VisibilityMPH,Wind Direction,Wind SpeedMPH,Gust SpeedMPH,PrecipitationIn,Events,Conditions,WindDirDegrees,DateUTC
7:00 AM,30.2,30.2,100,29.80,-9999.0,North,2.3,-,N/A,,Clear,10,2013-03-20 06:00:00
7:30 AM,32.0,32.0,100,29.80,6.2,NW,5.8,-,N/A,,Partly Cloudy,310,2013-03-20 06:30:00
8:00 AM,32.0,32.0,100,29.83,6.2,Calm,Calm,-,N/A,,Partly Cloudy,0,2013-03-20 07:00:00
8:30 AM,32.0,32.0,100,29.83,6.2,ESE,1.2,-,N/A,,Partly Cloudy,120,2013-03-20 07:30:00
9:00 AM,35.6,35.6,100,29.86,6.2,Calm,Calm,-,N/A,,Partly Cloudy,0,2013-03-20 08:00:00
9:30 AM,37.4,33.8,87,29.86,6.2,West,3.5,-,N/A,,Partly Cloudy,270,2013-03-20 08:30:00
10:00 AM,39.2,35.6,87,29.89,6.2,West,3.5,-,N/A,,Scattered Clouds,280,2013-03-20 09:00:00
10:30 AM,41.0,33.8,76,29.89,6.2,North,1.2,-,N/A,,Partly Cloudy,350,2013-03-20 09:30:00
11:00 AM,41.0,35.6,81,29.92,6.2,Variable,2.3,-,N/A,,Partly Cloudy,0,2013-03-20 10:00:00
11:30 AM,42.8,35.6,76,29.92,6.2,West,4.6,-,N/A,,Scattered Clouds,270,2013-03-20 10:30:00
12:30 PM,44.6,35.6,71,29.95,6.2,West,5.8,-,N/A,,Mostly Cloudy,270,2013-03-20 11:30:00
1:00 PM,44.6,33.8,66,29.95,6.2,West,11.5,-,N/A,,Mostly Cloudy,270,2013-03-20 12:00:00
1:30 PM,46.4,33.8,62,29.98,6.2,WSW,9.2,-,N/A,,Mostly Cloudy,250,2013-03-20 12:30:00
2:00 PM,46.4,35.6,66,29.98,6.2,West,9.2,-,N/A,,Mostly Cloudy,260,2013-03-20 13:00:00
2:30 PM,48.2,35.6,62,29.98,6.2,SW,11.5,-,N/A,,Mostly Cloudy,230,2013-03-20 13:30:00
3:00 PM,48.2,33.8,58,29.98,6.2,SW,12.7,-,N/A,,Mostly Cloudy,220,2013-03-20 14:00:00
3:30 PM,50.0,35.6,58,29.98,6.2,WSW,11.5,-,N/A,,Mostly Cloudy,250,2013-03-20 14:30:00
4:00 PM,50.0,35.6,58,29.98,6.2,SW,9.2,-,N/A,,Partly Cloudy,220,2013-03-20 15:00:00
4:30 PM,48.2,35.6,62,29.98,6.2,SW,11.5,-,N/A,,Partly Cloudy,230,2013-03-20 15:30:00
5:00 PM,50.0,33.8,54,29.98,6.2,SW,10.4,-,N/A,,Partly Cloudy,220,2013-03-20 16:00:00
5:30 PM,50.0,33.8,54,29.98,6.2,SW,11.5,-,N/A,,Partly Cloudy,230,2013-03-20 16:30:00
6:00 PM,48.2,35.6,62,29.98,6.2,SW,12.7,-,N/A,,Partly Cloudy,220,2013-03-20 17:00:00
6:30 PM,48.2,33.8,58,30.01,6.2,SW,11.5,-,N/A,,Partly Cloudy,220,2013-03-20 17:30:00
7:00 PM,48.2,33.8,58,30.01,-9999.0,SW,11.5,-,N/A,,Clear,230,2013-03-20 18:00:00
7:30 PM,44.6,33.8,66,30.01,-9999.0,SW,8.1,-,N/A,,Clear,230,2013-03-20 18:30:00
8:00 PM,42.8,33.8,70,30.01,-9999.0,SW,5.8,-,N/A,,Clear,220,2013-03-20 19:00:00
8:30 PM,42.8,33.8,70,30.04,-9999.0,WSW,1.2,-,N/A,,Clear,240,2013-03-20 19:30:00
9:00 PM,42.8,33.8,70,30.04,-9999.0,SSW,3.5,-,N/A,,Clear,210,2013-03-20 20:00:00
9:30 PM,41.0,33.8,76,30.04,-9999.0,South,3.5,-,N/A,,Clear,190,2013-03-20 20:30:00